• Join FlightAware (Why Join?)
  • Login
  • US Flag 
03:05AM EDT


 

Airport Tracker/Info


-or-


 

Live Flight TrackerFlight Track Log ✈ UPS1121 ✈ 23-Apr-2013 ✈ KBDL - KPHL

Flight Track Log - Related Links

Times and Time Zones

All times are in EDT time to prevent confusion due to time zone crossing. See the UPS1121 flight status page for this flight to view local times or setup timezone preferences in your user account.

Time Position Orientation Groundspeed Altitude Reporting Facility
EDT Latitude Longitude Course Direction KTS MPH feet Rate Location/Type
09:55PM 41.9542 -72.7053 334° Northwest 157 181 2,100  Level Boston Center
09:56PM 41.9833 -72.6831 30° Northeast 162 186 4,200 2,400 Climbing Boston Center
09:57PM 41.9544 -72.5881 112° Southeast 174 200 7,100 3,000 Climbing Boston Center
09:58PM 41.8689 -72.5767 174° South 242 278 10,300 2,400 Climbing Boston Center
09:59PM 41.7772 -72.5625 173° South 307 353 11,900 2,040 Climbing Boston Center
10:00PM 41.6708 -72.5514 176° South 375 432 14,400 2,400 Climbing Boston Center
10:01PM 41.5833 -72.4761 147° Southeast 375 432 16,700 2,280 Climbing Boston Center
10:02PM 41.5167 -72.3597 127° Southeast 375 432 19,000 1,620 Climbing Boston Center
10:03PM 41.4228 -72.3100 158° South 390 449 20,000 480 Climbing Boston Center
10:04PM 41.3208 -72.3544 198° South 357 411 20,000  Level Boston Center
10:05PM 41.2439 -72.4622 227° Southwest 339 390 20,000  Level Boston Center
10:06PM 41.1561 -72.5614 220° Southwest 388 447 20,000  Level Boston Center
10:07PM 41.0769 -72.6300 213° Southwest 414 476 20,000  Level Boston Center
10:08PM 40.9453 -72.7342 211° Southwest 424 488 20,000  Level Boston Center
10:09PM 40.8450 -72.8158 212° Southwest 429 494 20,000  Level Boston Center
10:12PM 40.6011 -73.0042 210° Southwest 430 495 20,000  Level New York Center
10:13PM 40.4975 -73.0828 210° Southwest 435 501 20,000  Level New York Center
10:14PM 40.3981 -73.1639 212° Southwest 435 501 20,000  Level New York Center
10:15PM 40.2942 -73.2444 211° Southwest 435 501 20,000  Level New York Center
10:16PM 40.1925 -73.3225 210° Southwest 435 501 20,000  Level New York Center
10:17PM 40.0864 -73.4025 210° Southwest 435 501 20,000  Level New York Center
10:18PM 39.9972 -73.4778 213° Southwest 435 501 20,000  Level New York Center
10:19PM 39.9111 -73.5881 225° Southwest 440 506 20,000  Level New York Center
10:20PM 39.8292 -73.7064 228° Southwest 435 501 20,000  Level New York Center
10:21PM 39.7492 -73.8219 228° Southwest 440 506 20,000 -1,140 Level New York Center
10:22PM 39.6175 -74.0075 227° Southwest 441 507 17,200 -2,280 Descending Washington Center
10:23PM 39.5419 -74.1194 229° Southwest 435 501 14,400 -2,340 Descending Washington Center
10:24PM 39.5278 -74.1664 249° West 387 445 14,100 -660 Descending FAA TRACON SMA TRACON (SMA)
10:24PM 39.5258 -74.2081 267° West 375 432 14,000 -180 Descending FAA TRACON SMA TRACON (SMA)
10:24PM 39.5253 -74.2503 269° West 382 440 14,000 -600 Level FAA TRACON SMA TRACON (SMA)
10:25PM 39.5267 -74.3003 272° West 381 438 13,600 -1,800 Descending FAA TRACON SMA TRACON (SMA)
10:25PM 39.5267 -74.3436 270° West 374 430 12,800 -2,280 Descending FAA TRACON SMA TRACON (SMA)
10:25PM 39.5269 -74.3839 271° West 370 426 12,100 -1,680 Descending FAA TRACON SMA TRACON (SMA)
10:26PM 39.5275 -74.4231 271° West 360 414 11,700 -1,200 Descending FAA TRACON SMA TRACON (SMA)
10:26PM 39.5278 -74.4683 270° West 336 387 11,300 -1,080 Descending FAA TRACON SMA TRACON (SMA)
10:26PM 39.5297 -74.5033 274° West 317 365 11,000 -900 Descending FAA TRACON SMA TRACON (SMA)
10:27PM 39.5294 -74.5453 270° West 302 348 10,700 -900 Descending FAA TRACON SMA TRACON (SMA)
10:27PM 39.5300 -74.5772 271° West 291 335 10,400 -780 Descending FAA TRACON SMA TRACON (SMA)
10:27PM 39.5306 -74.6081 271° West 281 323 10,200 -780 Descending FAA TRACON SMA TRACON (SMA)
10:28PM 39.5317 -74.6375 273° West 272 313 9,900 -1,080 Descending FAA TRACON SMA TRACON (SMA)
10:28PM 39.5336 -74.6728 274° West 264 304 9,500 -1,380 Descending FAA TRACON SMA TRACON (SMA)
10:28PM 39.5333 -74.7022 269° West 261 300 9,000 -780 Descending FAA TRACON SMA TRACON (SMA)
10:29PM 39.5342 -74.7314 272° West 262 302 9,000  Level FAA TRACON SMA TRACON (SMA)
10:29PM 39.5344 -74.7689 271° West 266 306 9,000  Level FAA TRACON SMA TRACON (SMA)
10:29PM 39.5350 -74.7989 271° West 268 308 9,000  Level FAA TRACON SMA TRACON (SMA)
10:30PM 39.5358 -74.8361 272° West 269 310 9,000  Level FAA TRACON SMA TRACON (SMA)
10:30PM 39.5361 -74.8661 271° West 271 312 9,000  Level FAA TRACON SMA TRACON (SMA)
10:30PM 39.5361 -74.8964 270° West 269 310 9,000 -180 Level FAA TRACON SMA TRACON (SMA)
10:31PM 39.5439 -74.9231 291° West 259 298 8,900 -1,200 Descending FAA TRACON SMA TRACON (SMA)
10:31PM 39.5603 -74.9517 307° West 257 296 8,200 -1,800 Descending FAA TRACON SMA TRACON (SMA)
10:31PM 39.5742 -74.9733 310° West 258 297 7,700 -1,500 Descending FAA TRACON SMA TRACON (SMA)
10:32PM 39.5917 -75.0017 309° West 259 298 7,200 -1,380 Descending FAA TRACON SMA TRACON (SMA)
10:32PM 39.6039 -75.0217 308° West 260 299 6,800 -1,260 Descending FAA TRACON SMA TRACON (SMA)
10:32PM 39.6206 -75.0464 311° West 258 297 6,400 -1,200 Descending FAA TRACON SMA TRACON (SMA)
10:33PM 39.6347 -75.0681 310° West 257 296 6,000 -600 Descending FAA TRACON SMA TRACON (SMA)
10:33PM 39.6525 -75.0950 311° West 257 296 6,000  Level FAA TRACON SMA TRACON (SMA)
10:33PM 39.6639 -75.1186 302° West 256 295 6,000  Level FAA TRACON SMA TRACON (SMA)
10:34PM 39.6731 -75.1447 295° West 261 300 6,000  Level FAA TRACON SMA TRACON (SMA)
10:34PM 39.6831 -75.1761 292° West 231 266 6,000 -180 Level FAA TRACON SMA TRACON (SMA)
10:34PM 39.6906 -75.1986 293° West 218 251 5,900 -480 Descending FAA TRACON SMA TRACON (SMA)
10:35PM 39.6975 -75.2206 292° West 214 246 5,700 -1,080 Descending FAA TRACON SMA TRACON (SMA)
10:35PM 39.7061 -75.2481 292° West 214 246 5,200 -1,260 Descending FAA TRACON SMA TRACON (SMA)
10:35PM 39.7172 -75.2803 294° West 215 247 4,700 -1,140 Descending FAA TRACON SMA TRACON (SMA)
10:36PM 39.7250 -75.3033 294° West 218 251 4,300 -840 Descending FAA TRACON SMA TRACON (SMA)
10:36PM 39.7386 -75.3431 294° West 222 255 4,000 -600 Descending FAA TRACON SMA TRACON (SMA)
10:37PM 39.7497 -75.3617 308° West 208 239 3,800 -1,080 Descending FAA TRACON SMA TRACON (SMA)
10:37PM 39.7714 -75.3700 344° North 204 235 3,300 -1,680 Descending FAA TRACON SMA TRACON (SMA)
10:37PM 39.7878 -75.3731 352° North 207 238 2,700 -1,500 Descending FAA TRACON SMA TRACON (SMA)
10:38PM 39.8067 -75.3772 350° North 210 242 2,300 -1,080 Descending FAA TRACON SMA TRACON (SMA)
10:38PM 39.8247 -75.3808 351° North 211 243 2,000 -900 Descending FAA TRACON SMA TRACON (SMA)
10:38PM 39.8433 -75.3781 North 165 190 1,700 -900 Descending FAA TRACON SMA TRACON (SMA)
10:39PM 39.8475 -75.3639 69° East 140 161 1,400 -780 Descending FAA TRACON SMA TRACON (SMA)
10:39PM 39.8464 -75.3464 95° East 128 147 1,200 -600 Descending FAA TRACON SMA TRACON (SMA)
10:39PM 39.8494 -75.3350 71° East 118 136 1,000 -600 Descending FAA TRACON SMA TRACON (SMA)
10:40PM 39.8514 -75.3219 79° East 112 129 800 -780 Descending FAA TRACON SMA TRACON (SMA)
10:40PM 39.8547 -75.3061 75° East 114 131 500 -720 Descending FAA TRACON SMA TRACON (SMA)
10:40PM 39.8578 -75.2903 76° East 116 133 300 -600 Descending FAA TRACON SMA TRACON (SMA)
10:41PM 39.8597 -75.2808 75° East 115 132 100 -660 Descending FAA TRACON SMA TRACON (SMA)
10:43PM 39.8667 -75.2333 44° Northeast  Level FlightAware Approximate